createdAt,value
2018-12-17T00:00:58.104Z,0
2018-12-17T00:02:43.023Z,0
2018-12-17T00:03:43.656Z,0
2018-12-17T00:04:44.173Z,0
2018-12-17T00:05:44.741Z,0
2018-12-17T00:07:29.710Z,0
2018-12-17T00:08:32.104Z,0
2018-12-17T00:09:31.843Z,0
2018-12-17T00:10:32.413Z,0
2018-12-17T00:12:17.330Z,0
2018-12-17T00:13:17.902Z,0
2018-12-17T00:14:18.472Z,0
2018-12-17T00:15:19.041Z,0
2018-12-17T00:17:05.205Z,0
2018-12-17T00:18:05.522Z,0
2018-12-17T00:19:06.142Z,0
2018-12-17T00:20:06.762Z,0
2018-12-17T00:21:51.681Z,0
2018-12-17T00:25:23.090Z,0
2018-12-17T00:26:23.660Z,0
2018-12-17T00:27:24.227Z,0
2018-12-17T00:29:09.195Z,0
2018-12-17T00:30:09.764Z,0
2018-12-17T00:31:10.435Z,0
2018-12-17T00:32:11.002Z,0
2018-12-17T00:33:56.021Z,0
2018-12-17T00:35:14.405Z,0
2018-12-17T00:36:14.975Z,0
2018-12-17T00:37:15.544Z,0
2018-12-17T00:38:16.114Z,0
2018-12-17T00:40:01.207Z,0
2018-12-17T00:41:01.784Z,0
2018-12-17T00:43:03.921Z,0
2018-12-17T00:44:48.835Z,0
2018-12-17T00:45:49.402Z,0
2018-12-17T00:46:49.972Z,0
2018-12-17T00:47:50.542Z,0
2018-12-17T00:49:35.697Z,0
2018-12-17T00:50:36.265Z,0
2018-12-17T00:51:36.836Z,0
2018-12-17T00:52:37.402Z,0
2018-12-17T00:54:22.318Z,0
2018-12-17T00:55:22.936Z,0
2018-12-17T00:56:23.506Z,0
2018-12-17T00:57:24.123Z,0
2018-12-17T00:59:09.044Z,0
2018-12-17T01:00:09.610Z,0
2018-12-17T01:01:10.180Z,0
2018-12-17T01:02:10.748Z,0
2018-12-17T01:03:55.666Z,0
2018-12-17T01:05:13.999Z,0
2018-12-17T01:06:14.566Z,0
2018-12-17T01:07:15.186Z,0
2018-12-17T01:08:15.757Z,0
2018-12-17T01:10:00.672Z,0
2018-12-17T01:11:01.239Z,0
2018-12-17T01:13:17.228Z,0
2018-12-17T01:14:17.847Z,0
2018-12-17T01:16:02.813Z,0
2018-12-17T01:17:03.385Z,0
2018-12-17T01:18:03.951Z,0
2018-12-17T01:19:04.520Z,0
2018-12-17T01:21:51.258Z,0
2018-12-17T01:23:53.436Z,0
2018-12-17T01:27:41.642Z,0
2018-12-17T01:33:53.094Z,0
2018-12-17T01:35:55.223Z,0
2018-12-17T01:37:31.326Z,0
2018-12-17T01:39:33.453Z,0
2018-12-17T01:40:34.021Z,0
2018-12-17T01:42:18.938Z,0
2018-12-17T01:43:19.554Z,0
2018-12-17T01:44:20.123Z,0
2018-12-17T01:45:20.691Z,0
2018-12-17T01:48:07.385Z,0
2018-12-17T01:49:07.952Z,0
2018-12-17T02:02:41.825Z,0
2018-12-17T02:03:42.394Z,0
2018-12-17T02:04:42.967Z,0
2018-12-17T02:05:43.594Z,0
2018-12-17T02:13:46.158Z,0
2018-12-17T02:14:46.724Z,0
2018-12-17T02:15:47.292Z,0
2018-12-17T02:16:47.858Z,0
2018-12-17T02:18:32.772Z,0
2018-12-17T02:19:33.339Z,0
2018-12-17T02:20:33.907Z,0
2018-12-17T02:21:34.474Z,0
2018-12-17T02:23:19.389Z,0
2018-12-17T02:24:19.956Z,0
2018-12-17T02:25:20.525Z,0
2018-12-17T02:26:21.092Z,0
2018-12-17T02:28:06.108Z,0
2018-12-17T02:29:06.727Z,0
2018-12-17T02:30:07.302Z,0
2018-12-17T02:31:07.863Z,0
2018-12-17T02:32:52.790Z,0
2018-12-17T02:33:53.350Z,0
2018-12-17T02:34:53.918Z,0
2018-12-17T02:35:54.488Z,0
2018-12-17T02:37:39.403Z,0
2018-12-17T02:38:39.970Z,0
2018-12-17T02:39:40.541Z,0
2018-12-17T02:40:41.107Z,0
2018-12-17T02:42:26.023Z,0
2018-12-17T02:43:26.590Z,0
2018-12-17T02:44:27.216Z,0
2018-12-17T02:45:40.523Z,0
2018-12-17T02:48:06.794Z,0
2018-12-17T02:49:07.373Z,0
2018-12-17T02:50:07.928Z,0
2018-12-17T02:51:22.259Z,0
2018-12-17T02:52:22.826Z,0
2018-12-17T02:53:23.546Z,0
2018-12-17T02:57:17.958Z,0
2018-12-17T02:58:18.534Z,0
2018-12-17T03:08:26.949Z,0
2018-12-17T03:09:27.566Z,0
2018-12-17T03:10:28.193Z,0
2018-12-17T03:11:28.752Z,0
2018-12-17T03:13:13.665Z,0
2018-12-17T03:14:14.238Z,0
2018-12-17T03:19:08.861Z,0
2018-12-17T03:20:09.427Z,0
2018-12-17T03:21:10.001Z,0
2018-12-17T03:22:10.566Z,0
2018-12-17T03:23:55.476Z,0
2018-12-17T03:24:56.042Z,0
2018-12-17T03:25:56.662Z,0
2018-12-17T03:32:48.833Z,0
2018-12-17T03:33:49.400Z,0
2018-12-17T03:34:49.954Z,0
2018-12-17T03:35:50.572Z,0
2018-12-17T03:37:35.488Z,0
2018-12-17T03:38:36.054Z,0
2018-12-17T03:39:36.673Z,0
2018-12-17T03:40:37.239Z,0
2018-12-17T03:42:22.206Z,0
2018-12-17T03:45:14.242Z,0
2018-12-17T03:46:14.857Z,0
2018-12-17T03:47:15.375Z,0
2018-12-17T03:49:00.295Z,0
2018-12-17T03:50:00.857Z,0
2018-12-17T03:51:01.426Z,0
2018-12-17T03:52:01.993Z,0
2018-12-17T03:53:46.958Z,0
2018-12-17T03:55:05.297Z,0
2018-12-17T03:57:35.053Z,0
2018-12-17T03:58:49.645Z,0
2018-12-17T03:59:50.375Z,0
2018-12-17T04:00:50.888Z,0
2018-12-17T04:01:51.457Z,0
2018-12-17T04:03:36.372Z,0
2018-12-17T04:04:36.938Z,0
2018-12-17T04:05:37.506Z,0
2018-12-17T04:06:38.074Z,0
2018-12-17T04:08:16.442Z,0
2018-12-17T04:10:18.622Z,0
2018-12-17T04:11:19.194Z,0
2018-12-17T04:15:33.035Z,0
2018-12-17T04:16:33.658Z,0
2018-12-17T04:17:34.221Z,0
2018-12-17T04:18:34.788Z,0
2018-12-17T04:20:19.704Z,0
2018-12-17T04:21:20.270Z,0
2018-12-17T04:22:20.840Z,0
2018-12-17T04:23:21.407Z,0
2018-12-17T04:25:06.371Z,0
2018-12-17T04:26:06.938Z,0
2018-12-17T04:27:07.506Z,0
2018-12-17T04:28:08.074Z,0
2018-12-17T04:30:41.099Z,0
2018-12-17T04:31:41.867Z,0
2018-12-17T04:32:42.487Z,0
2018-12-17T04:33:43.056Z,0
2018-12-17T04:35:27.969Z,0
2018-12-17T04:36:28.538Z,0
2018-12-17T04:37:29.106Z,0
2018-12-17T04:38:29.673Z,0
2018-12-17T04:40:14.631Z,0
2018-12-17T04:41:15.199Z,0
2018-12-17T04:42:15.767Z,0
2018-12-17T04:43:16.333Z,0
2018-12-17T04:45:01.249Z,0
2018-12-17T04:46:01.818Z,0
2018-12-17T04:47:02.386Z,0
2018-12-17T04:48:02.953Z,0
2018-12-17T04:49:47.918Z,0
2018-12-17T04:50:48.541Z,0
2018-12-17T04:51:49.105Z,0
2018-12-17T04:52:49.673Z,0
2018-12-17T04:54:34.590Z,0
2018-12-17T04:55:35.208Z,0
2018-12-17T04:56:35.777Z,0
2018-12-17T04:57:36.344Z,0
2018-12-17T04:59:21.260Z,0
2018-12-17T05:00:21.834Z,0
2018-12-17T05:01:22.396Z,0
2018-12-17T05:02:22.964Z,0
2018-12-17T05:04:07.879Z,0
2018-12-17T05:05:08.498Z,0
2018-12-17T05:06:09.066Z,0
2018-12-17T05:07:09.632Z,0
2018-12-17T05:08:54.547Z,0
2018-12-17T05:09:55.168Z,0
2018-12-17T05:10:55.733Z,0
2018-12-17T05:11:56.306Z,0
2018-12-17T05:13:41.263Z,0
2018-12-17T05:14:41.828Z,0
2018-12-17T05:15:42.402Z,0
2018-12-17T05:16:42.968Z,0
2018-12-17T05:18:27.890Z,0
2018-12-17T05:19:28.453Z,0
2018-12-17T05:20:29.022Z,0
2018-12-17T05:21:29.640Z,0
2018-12-17T05:23:14.559Z,0
2018-12-17T05:24:15.126Z,0
2018-12-17T05:25:15.696Z,0
2018-12-17T05:26:16.314Z,0
2018-12-17T05:28:01.233Z,0
2018-12-17T05:29:01.800Z,0
2018-12-17T05:30:02.371Z,0
2018-12-17T05:31:02.939Z,0
2018-12-17T05:32:47.906Z,0
2018-12-17T05:34:44.871Z,0
2018-12-17T05:35:45.434Z,0
2018-12-17T05:36:46.001Z,0
2018-12-17T05:37:46.570Z,0
2018-12-17T05:39:31.488Z,0
2018-12-17T05:40:32.055Z,0
2018-12-17T05:41:32.624Z,0
2018-12-17T05:42:33.193Z,0
2018-12-17T05:44:18.108Z,0
2018-12-17T05:45:18.727Z,0
2018-12-17T05:46:19.294Z,0
2018-12-17T05:47:19.862Z,0
2018-12-17T05:49:04.828Z,0
2018-12-17T05:50:05.395Z,0
2018-12-17T05:51:05.967Z,0
2018-12-17T05:52:06.639Z,0
2018-12-17T05:53:51.545Z,0
2018-12-17T05:54:52.114Z,0
2018-12-17T05:55:52.682Z,0
2018-12-17T05:56:53.250Z,0
2018-12-17T05:58:38.165Z,0
2018-12-17T05:59:38.733Z,0
2018-12-17T06:00:39.352Z,0
2018-12-17T06:01:39.921Z,0
2018-12-17T06:03:24.838Z,0
2018-12-17T06:04:25.407Z,0
2018-12-17T06:05:25.976Z,0
2018-12-17T06:06:26.545Z,0
2018-12-17T06:08:11.461Z,0
2018-12-17T06:09:12.028Z,0
2018-12-17T06:10:12.647Z,0
2018-12-17T06:11:13.266Z,0
2018-12-17T06:12:58.187Z,0
2018-12-17T06:13:58.752Z,0
2018-12-17T06:14:59.321Z,0
2018-12-17T06:15:59.889Z,0
2018-12-17T06:17:44.854Z,0
2018-12-17T06:18:45.421Z,0
2018-12-17T06:19:46.042Z,0
2018-12-17T06:20:46.609Z,0
2018-12-17T06:22:31.529Z,0
2018-12-17T06:23:32.093Z,0
2018-12-17T06:24:32.662Z,0
2018-12-17T06:25:33.231Z,0
2018-12-17T06:27:18.145Z,0
2018-12-17T06:28:18.714Z,0
2018-12-17T06:29:19.282Z,0
2018-12-17T06:30:19.949Z,0
2018-12-17T06:32:04.867Z,0
2018-12-17T06:33:05.919Z,0
2018-12-17T06:34:56.341Z,0
2018-12-17T06:35:56.910Z,0
2018-12-17T06:36:57.577Z,0
2018-12-17T06:37:58.145Z,0
2018-12-17T06:39:43.061Z,0
2018-12-17T06:40:43.628Z,0
2018-12-17T06:41:44.197Z,0
2018-12-17T06:42:44.814Z,0
2018-12-17T06:44:29.729Z,0
2018-12-17T06:45:30.296Z,0
2018-12-17T06:46:30.865Z,0
2018-12-17T06:47:31.432Z,0
2018-12-17T06:49:16.397Z,0
2018-12-17T06:50:16.965Z,0
2018-12-17T06:51:17.534Z,0
2018-12-17T06:52:18.100Z,0
2018-12-17T06:54:03.016Z,0
2018-12-17T06:55:03.583Z,0
2018-12-17T06:56:04.152Z,0
2018-12-17T06:57:04.721Z,0
2018-12-17T06:58:49.687Z,0
2018-12-17T06:59:50.263Z,0
2018-12-17T07:03:14.087Z,0
2018-12-17T07:04:14.653Z,0
2018-12-17T07:05:15.220Z,0
2018-12-17T07:06:15.839Z,0
2018-12-17T07:08:00.904Z,0
2018-12-17T07:09:01.475Z,0
2018-12-17T07:10:02.038Z,0
2018-12-17T07:11:02.603Z,0
2018-12-17T07:12:47.524Z,0
2018-12-17T07:13:48.088Z,0
2018-12-17T07:14:48.657Z,0
2018-12-17T07:15:49.267Z,0
2018-12-17T07:17:34.214Z,0
2018-12-17T07:18:34.750Z,0
2018-12-17T07:19:35.369Z,0
2018-12-17T07:20:35.934Z,0
2018-12-17T07:22:20.850Z,0
2018-12-17T07:23:21.467Z,0
2018-12-17T07:24:22.036Z,0
2018-12-17T07:25:22.604Z,0
2018-12-17T07:27:07.568Z,0
2018-12-17T07:28:08.135Z,0
2018-12-17T07:29:08.705Z,0
2018-12-17T07:30:09.271Z,0
2018-12-17T07:31:54.227Z,0
2018-12-17T07:32:54.754Z,0
2018-12-17T07:33:55.324Z,0
2018-12-17T07:34:55.889Z,0
2018-12-17T07:36:40.806Z,0
2018-12-17T07:37:41.372Z,0
2018-12-17T07:38:41.992Z,0
2018-12-17T07:39:42.559Z,0
2018-12-17T07:41:27.525Z,0
2018-12-17T07:42:28.092Z,0
2018-12-17T07:43:28.664Z,0
2018-12-17T07:44:29.272Z,0
2018-12-17T07:46:14.287Z,0
2018-12-17T07:47:14.857Z,0
2018-12-17T07:48:15.425Z,0
2018-12-17T07:49:15.993Z,0
2018-12-17T07:51:00.909Z,0
2018-12-17T07:52:32.511Z,0
2018-12-17T07:53:33.079Z,0
2018-12-17T07:54:33.648Z,0
2018-12-17T07:55:34.216Z,0
2018-12-17T07:57:19.132Z,0
2018-12-17T07:58:19.703Z,0
2018-12-17T07:59:20.361Z,0
2018-12-17T08:00:20.928Z,0
2018-12-17T08:02:05.844Z,0
2018-12-17T08:03:06.411Z,0
2018-12-17T08:04:07.180Z,0
2018-12-17T08:05:07.756Z,0
2018-12-17T08:06:52.669Z,0
2018-12-17T08:07:53.280Z,0
2018-12-17T08:08:53.847Z,0
2018-12-17T08:09:54.415Z,0
2018-12-17T08:11:39.379Z,0
2018-12-17T08:12:40.025Z,0
2018-12-17T08:14:46.366Z,0
2018-12-17T08:15:46.933Z,0
2018-12-17T08:16:47.503Z,0
2018-12-17T08:17:48.069Z,0
2018-12-17T08:19:32.984Z,0
2018-12-17T08:20:33.550Z,0
2018-12-17T08:21:34.169Z,0
2018-12-17T08:22:34.736Z,0
2018-12-17T08:24:19.701Z,0
2018-12-17T08:25:20.268Z,0
2018-12-17T08:26:20.897Z,0
2018-12-17T08:29:07.428Z,0
2018-12-17T08:30:07.997Z,0
2018-12-17T08:31:08.565Z,0
2018-12-17T08:32:09.130Z,0
2018-12-17T08:33:54.047Z,0
2018-12-17T08:34:54.612Z,0
2018-12-17T08:35:55.181Z,4
2018-12-17T08:36:55.749Z,4
2018-12-17T08:38:40.665Z,4
2018-12-17T08:39:41.230Z,4
2018-12-17T08:40:41.799Z,4
2018-12-17T08:41:42.367Z,4
2018-12-17T08:43:27.285Z,4
2018-12-17T08:44:27.899Z,4
2018-12-17T08:45:28.517Z,4
2018-12-17T08:46:29.135Z,4
2018-12-17T08:49:34.200Z,4
2018-12-17T08:50:34.767Z,4
2018-12-17T08:51:35.334Z,4
2018-12-17T08:52:35.901Z,4
2018-12-17T08:54:20.817Z,4
2018-12-17T08:55:21.391Z,4
2018-12-17T08:56:21.978Z,4
2018-12-17T08:57:22.550Z,4
2018-12-17T08:59:07.508Z,4
2018-12-17T09:00:11.123Z,4
2018-12-17T09:01:09.638Z,4
2018-12-17T09:02:10.204Z,4
2018-12-17T09:03:55.123Z,4
2018-12-17T09:04:55.739Z,4
2018-12-17T09:05:56.355Z,0
2018-12-17T09:06:56.923Z,0
2018-12-17T09:08:41.840Z,0
2018-12-17T09:09:42.457Z,0
2018-12-17T09:10:43.025Z,0
2018-12-17T09:11:43.593Z,0
2018-12-17T09:13:28.508Z,4
2018-12-17T09:14:29.076Z,4
2018-12-17T09:15:29.644Z,4
2018-12-17T09:16:30.211Z,4
2018-12-17T09:18:15.126Z,4
2018-12-17T09:19:15.695Z,0
2018-12-17T09:20:16.262Z,4
2018-12-17T09:21:16.829Z,4
2018-12-17T09:23:01.844Z,0
2018-12-17T09:24:02.418Z,0
2018-12-17T09:25:02.982Z,0
2018-12-17T09:26:03.606Z,0
2018-12-17T09:27:48.516Z,4
2018-12-17T09:28:49.134Z,4
2018-12-17T09:29:49.702Z,4
2018-12-17T09:30:50.271Z,4
2018-12-17T09:32:35.185Z,4
2018-12-17T09:33:35.751Z,4
2018-12-17T09:34:36.322Z,4
2018-12-17T09:35:36.932Z,4
2018-12-17T09:37:21.847Z,4
2018-12-17T09:38:22.414Z,4
2018-12-17T09:39:22.983Z,4
2018-12-17T09:40:23.600Z,4
2018-12-17T09:42:08.516Z,4
2018-12-17T09:43:09.082Z,4
2018-12-17T09:44:09.651Z,4
2018-12-17T09:45:10.269Z,4
2018-12-17T09:46:55.235Z,4
2018-12-17T09:47:55.801Z,4
2018-12-17T09:48:56.371Z,4
2018-12-17T09:49:56.938Z,4
2018-12-17T09:51:41.858Z,4
2018-12-17T09:52:42.425Z,4
2018-12-17T09:53:42.995Z,4
2018-12-17T09:54:43.561Z,4
2018-12-17T09:56:40.527Z,4
2018-12-17T09:57:41.095Z,4
2018-12-17T09:58:41.662Z,4
2018-12-17T09:59:42.281Z,4
2018-12-17T10:01:27.249Z,4
2018-12-17T10:02:27.813Z,4
2018-12-17T10:03:28.382Z,4
2018-12-17T10:04:29.001Z,4
2018-12-17T10:06:13.922Z,4
2018-12-17T10:07:14.482Z,4
2018-12-17T10:08:15.062Z,4
2018-12-17T10:09:15.618Z,4
2018-12-17T10:11:00.534Z,8
2018-12-17T10:12:01.144Z,8
2018-12-17T10:13:01.715Z,8
2018-12-17T10:14:02.283Z,8
2018-12-17T10:15:47.247Z,8
2018-12-17T10:16:47.866Z,8
2018-12-17T10:17:48.432Z,8
2018-12-17T10:18:49.002Z,8
2018-12-17T10:20:33.919Z,8
2018-12-17T10:21:34.483Z,8
2018-12-17T10:22:35.052Z,8
2018-12-17T10:23:35.619Z,8
2018-12-17T10:25:20.536Z,8
2018-12-17T10:26:21.153Z,8
2018-12-17T10:27:21.720Z,8
2018-12-17T10:28:22.292Z,8
2018-12-17T10:31:10.257Z,8
2018-12-17T10:32:24.639Z,8
2018-12-17T10:33:25.207Z,8
2018-12-17T10:34:25.823Z,8
2018-12-17T10:35:26.390Z,8
2018-12-17T10:37:11.308Z,8
2018-12-17T10:38:11.874Z,8
2018-12-17T10:39:46.234Z,12
2018-12-17T10:41:12.581Z,12
2018-12-17T10:42:13.149Z,8
2018-12-17T10:43:13.723Z,8
2018-12-17T10:44:14.289Z,8
2018-12-17T10:45:59.254Z,8
2018-12-17T10:46:59.823Z,8
2018-12-17T10:48:00.390Z,8
2018-12-17T10:49:00.956Z,8
2018-12-17T10:50:45.926Z,8
2018-12-17T10:51:46.488Z,8
2018-12-17T10:52:47.057Z,8
2018-12-17T10:53:47.623Z,8
2018-12-17T10:55:32.588Z,8
2018-12-17T10:56:33.156Z,8
2018-12-17T10:57:33.745Z,8
2018-12-17T10:58:34.317Z,8
2018-12-17T11:00:19.229Z,8
2018-12-17T11:01:19.797Z,12
2018-12-17T11:02:20.366Z,12
2018-12-17T11:03:20.935Z,8
2018-12-17T11:05:05.852Z,8
2018-12-17T11:06:06.417Z,8
2018-12-17T11:07:06.987Z,12
2018-12-17T11:09:09.428Z,8
2018-12-17T11:10:23.761Z,8
2018-12-17T11:11:24.327Z,8
2018-12-17T11:12:24.897Z,8
2018-12-17T11:13:25.464Z,12
2018-12-17T11:15:10.492Z,12
2018-12-17T11:16:11.053Z,8
2018-12-17T11:17:11.616Z,8
2018-12-17T11:18:12.184Z,12
2018-12-17T11:19:57.102Z,8
2018-12-17T11:20:57.669Z,8
2018-12-17T11:21:58.239Z,12
2018-12-17T11:22:58.807Z,8
2018-12-17T11:24:43.724Z,12
2018-12-17T11:25:44.291Z,8
2018-12-17T11:26:44.860Z,8
2018-12-17T11:27:45.429Z,12
2018-12-17T11:29:30.395Z,12
2018-12-17T11:30:30.968Z,8
2018-12-17T11:31:31.539Z,8
2018-12-17T11:32:32.147Z,8
2018-12-17T11:35:01.953Z,8
2018-12-17T11:36:02.720Z,12
2018-12-17T11:37:03.287Z,8
2018-12-17T11:38:03.854Z,8
2018-12-17T11:39:48.769Z,12
2018-12-17T11:40:49.336Z,8
2018-12-17T11:41:49.906Z,12
2018-12-17T11:42:50.476Z,12
2018-12-17T11:44:35.442Z,12
2018-12-17T11:45:36.009Z,8
2018-12-17T11:46:50.344Z,12
2018-12-17T11:47:50.914Z,12
2018-12-17T11:48:51.676Z,12
2018-12-17T11:49:52.246Z,12
2018-12-17T11:51:37.165Z,12
2018-12-17T11:52:37.731Z,8
2018-12-17T11:53:38.299Z,8
2018-12-17T11:54:38.868Z,8
2018-12-17T11:56:23.937Z,12
2018-12-17T11:57:24.503Z,8
2018-12-17T11:58:25.124Z,8
2018-12-17T11:59:25.688Z,8
2018-12-17T12:01:16.066Z,8
2018-12-17T12:02:16.635Z,8
2018-12-17T12:03:17.203Z,12
2018-12-17T12:04:17.771Z,8
2018-12-17T12:06:02.739Z,8
2018-12-17T12:07:03.306Z,8
2018-12-17T12:12:46.087Z,8
2018-12-17T12:14:52.480Z,12
2018-12-17T12:15:53.047Z,12
2018-12-17T12:16:53.819Z,812
2018-12-17T12:23:26.637Z,3556
2018-12-17T12:24:27.203Z,3612
2018-12-17T12:25:27.775Z,3520
2018-12-17T12:28:11.559Z,3108
2018-12-17T12:33:23.873Z,3656
2018-12-17T12:34:24.554Z,3936
2018-12-17T12:35:25.138Z,4008
2018-12-17T12:36:25.718Z,4092
2018-12-17T12:41:25.957Z,4472
2018-12-17T12:55:49.911Z,4456
2018-12-17T12:56:50.486Z,4304
2018-12-17T12:57:51.058Z,4124
2018-12-17T12:58:51.631Z,3936
2018-12-17T13:00:36.752Z,3780
2018-12-17T13:01:37.324Z,3688
2018-12-17T13:07:52.247Z,4116
2018-12-17T13:10:08.242Z,4192
2018-12-17T13:12:37.267Z,4544
2018-12-17T13:22:26.352Z,4560
2018-12-17T13:23:26.931Z,4676
2018-12-17T13:25:12.026Z,4648
2018-12-17T13:26:12.608Z,4656
2018-12-17T13:27:13.188Z,4600
2018-12-17T13:28:13.818Z,4448
2018-12-17T13:29:58.913Z,4664
2018-12-17T13:30:59.546Z,4772
2018-12-17T13:32:00.130Z,4744
2018-12-17T13:33:00.708Z,4700
2018-12-17T13:34:45.802Z,4752
2018-12-17T13:35:46.384Z,4756
2018-12-17T13:36:46.965Z,4748
2018-12-17T13:37:47.593Z,4696
2018-12-17T13:39:32.689Z,4576
2018-12-17T13:40:33.276Z,4564
2018-12-17T13:41:33.855Z,4440
2018-12-17T13:42:34.435Z,4356
2018-12-17T13:44:19.530Z,4352
2018-12-17T13:45:20.112Z,4312
2018-12-17T13:46:20.691Z,4236
2018-12-17T13:47:21.272Z,4128
2018-12-17T13:49:06.417Z,4140
2018-12-17T13:50:06.998Z,4020
2018-12-17T13:51:07.628Z,3924
2018-12-17T13:52:08.211Z,3816
2018-12-17T13:53:53.343Z,3732
2018-12-17T13:54:53.924Z,3704
2018-12-17T13:55:54.556Z,3740
2018-12-17T13:56:55.136Z,3844
2018-12-17T13:58:40.231Z,4152
2018-12-17T13:59:40.812Z,4252
2018-12-17T14:00:41.392Z,4260
2018-12-17T14:01:41.971Z,4380
2018-12-17T14:03:27.069Z,4536
2018-12-17T14:04:27.647Z,4496
2018-12-17T14:05:28.227Z,4412
2018-12-17T14:06:28.807Z,4336
2018-12-17T14:08:13.951Z,4216
2018-12-17T14:09:14.532Z,4248
2018-12-17T14:10:15.112Z,4300
2018-12-17T14:11:15.692Z,4420
2018-12-17T14:13:00.888Z,4660
2018-12-17T14:14:01.510Z,5032
2018-12-17T14:15:02.091Z,5720
2018-12-17T14:16:02.671Z,6208
2018-12-17T14:17:47.768Z,7852
2018-12-17T14:18:48.350Z,8452
2018-12-17T14:19:48.929Z,9732
2018-12-17T14:20:49.509Z,7392
2018-12-17T14:22:34.605Z,9024
2018-12-17T14:23:35.187Z,8448
2018-12-17T14:24:35.766Z,5192
2018-12-17T14:25:36.346Z,4996
2018-12-17T14:27:21.442Z,4532
2018-12-17T14:28:27.027Z,3964
2018-12-17T14:29:27.659Z,3924
2018-12-17T14:30:28.287Z,3932
2018-12-17T14:32:13.532Z,4908
2018-12-17T14:33:14.112Z,5532
2018-12-17T14:34:14.698Z,7520
2018-12-17T14:35:15.323Z,7992
2018-12-17T14:37:00.416Z,5668
2018-12-17T14:38:00.998Z,5400
2018-12-17T14:39:01.580Z,4712
2018-12-17T14:40:02.162Z,4740
2018-12-17T14:41:47.860Z,4464
2018-12-17T14:42:48.490Z,4744
2018-12-17T14:43:49.072Z,7484
2018-12-17T14:44:49.651Z,6660
2018-12-17T14:46:34.746Z,5288
2018-12-17T14:47:35.328Z,4156
2018-12-17T14:48:35.906Z,3800
2018-12-17T14:49:36.487Z,3760
2018-12-17T14:51:21.635Z,3968
2018-12-17T14:52:22.266Z,4096
2018-12-17T14:53:22.852Z,3932
2018-12-17T14:54:23.427Z,4252
2018-12-17T14:56:08.522Z,3816
2018-12-17T14:57:09.104Z,3740
2018-12-17T14:58:09.684Z,3856
2018-12-17T14:59:10.463Z,3856
2018-12-17T15:00:55.557Z,10244
2018-12-17T15:01:56.159Z,8772
2018-12-17T15:02:56.742Z,13656
2018-12-17T15:03:57.322Z,11748
2018-12-17T15:05:42.418Z,8704
2018-12-17T15:06:43.006Z,6460
2018-12-17T15:07:43.636Z,6836
2018-12-17T15:08:44.215Z,5100
2018-12-17T15:10:29.394Z,4444
2018-12-17T15:11:30.140Z,3976
2018-12-17T15:12:30.721Z,3680
2018-12-17T15:13:31.303Z,3416
2018-12-17T15:15:16.395Z,3232
2018-12-17T15:16:16.976Z,3324
2018-12-17T15:17:17.555Z,3500
2018-12-17T15:18:18.190Z,3544
2018-12-17T15:20:03.334Z,4180
2018-12-17T15:21:03.915Z,3860
2018-12-17T15:22:04.495Z,4660
2018-12-17T15:23:05.078Z,6148
2018-12-17T15:24:50.171Z,4204
2018-12-17T15:25:50.769Z,3792
2018-12-17T15:26:51.341Z,4164
2018-12-17T15:27:51.925Z,3616
2018-12-17T15:29:37.079Z,3112
2018-12-17T15:30:37.637Z,3040
2018-12-17T15:31:43.029Z,2992
2018-12-17T15:32:39.839Z,2920
2018-12-17T15:34:24.933Z,2924
2018-12-17T15:35:25.516Z,3124
2018-12-17T15:36:26.096Z,3600
2018-12-17T15:37:26.765Z,2708
2018-12-17T15:39:12.012Z,2916
2018-12-17T15:40:12.590Z,2900
2018-12-17T15:41:13.170Z,2532
2018-12-17T15:42:13.750Z,2512
2018-12-17T15:43:58.884Z,2264
2018-12-17T15:44:59.465Z,2180
2018-12-17T15:46:00.043Z,2280
2018-12-17T15:47:00.772Z,2784
2018-12-17T15:48:45.867Z,2972
2018-12-17T15:49:46.445Z,2532
2018-12-17T15:50:47.025Z,2436
2018-12-17T15:51:47.656Z,2544
2018-12-17T15:53:32.747Z,2084
2018-12-17T15:54:33.383Z,1960
2018-12-17T15:55:34.003Z,1688
2018-12-17T15:56:34.582Z,1564
2018-12-17T15:58:19.675Z,1388
2018-12-17T15:59:20.263Z,1316
2018-12-17T16:00:20.840Z,1268
2018-12-17T16:01:21.419Z,1232
2018-12-17T16:03:06.516Z,1184
2018-12-17T16:04:07.144Z,1164
2018-12-17T16:05:07.724Z,1148
2018-12-17T16:06:08.301Z,1140
2018-12-17T16:07:53.446Z,1108
2018-12-17T16:08:54.026Z,1092
2018-12-17T16:09:54.604Z,1092
2018-12-17T16:10:55.182Z,1096
2018-12-17T16:12:40.275Z,1104
2018-12-17T16:13:40.910Z,1104
2018-12-17T16:14:41.534Z,1096
2018-12-17T16:15:42.112Z,1088
2018-12-17T16:17:27.208Z,1072
2018-12-17T16:18:27.788Z,1060
2018-12-17T16:19:28.408Z,1036
2018-12-17T16:20:28.985Z,972
2018-12-17T16:22:14.079Z,888
2018-12-17T16:23:14.707Z,840
2018-12-17T16:24:15.284Z,796
2018-12-17T16:25:15.911Z,748
2018-12-17T16:27:01.003Z,660
2018-12-17T16:28:01.582Z,616
2018-12-17T16:29:02.161Z,576
2018-12-17T16:30:02.788Z,540
2018-12-17T16:31:47.879Z,500
2018-12-17T16:32:48.457Z,484
2018-12-17T16:33:49.033Z,464
2018-12-17T16:34:49.613Z,456
2018-12-17T16:36:34.703Z,436
2018-12-17T16:37:35.280Z,424
2018-12-17T16:38:35.860Z,412
2018-12-17T16:39:36.442Z,396
2018-12-17T16:44:40.167Z,316
2018-12-17T16:45:40.732Z,300
2018-12-17T16:47:25.647Z,280
2018-12-17T16:48:26.214Z,268
2018-12-17T16:49:26.784Z,256
2018-12-17T16:50:27.354Z,240
2018-12-17T16:52:12.273Z,208
2018-12-17T16:53:12.844Z,192
2018-12-17T16:54:13.412Z,172
2018-12-17T16:55:13.985Z,152
2018-12-17T16:56:58.949Z,124
2018-12-17T16:57:59.523Z,112
2018-12-17T16:59:00.090Z,100
2018-12-17T17:00:00.658Z,88
2018-12-17T17:02:04.271Z,72
2018-12-17T17:02:59.108Z,64
2018-12-17T17:03:59.725Z,60
2018-12-17T17:05:00.299Z,52
2018-12-17T17:06:45.214Z,48
2018-12-17T17:07:45.782Z,48
2018-12-17T17:08:46.352Z,44
2018-12-17T17:09:46.971Z,40
2018-12-17T17:11:31.890Z,36
2018-12-17T17:12:32.457Z,32
2018-12-17T17:13:33.027Z,28
2018-12-17T17:14:33.597Z,24
2018-12-17T17:16:18.563Z,24
2018-12-17T17:17:19.130Z,20
2018-12-17T17:18:19.700Z,16
2018-12-17T17:19:20.270Z,12
2018-12-17T17:21:05.230Z,12
2018-12-17T17:22:05.796Z,8
2018-12-17T17:23:06.365Z,8
2018-12-17T17:24:06.984Z,4
2018-12-17T17:25:51.902Z,12
2018-12-17T17:26:52.470Z,8
2018-12-17T17:27:53.041Z,8
2018-12-17T17:28:53.607Z,4
2018-12-17T17:30:38.746Z,8
2018-12-17T17:33:00.127Z,8
2018-12-17T17:34:00.751Z,4
2018-12-17T17:35:45.841Z,4
2018-12-17T17:37:47.976Z,4
2018-12-17T17:39:40.100Z,4
2018-12-17T17:41:56.135Z,4
2018-12-17T17:42:56.712Z,4
2018-12-17T17:43:57.285Z,4
2018-12-17T17:45:42.524Z,4
2018-12-17T17:48:22.444Z,4
2018-12-17T17:50:39.401Z,4
2018-12-17T17:55:20.110Z,4
2018-12-17T17:56:58.528Z,4
2018-12-17T17:57:59.102Z,4
2018-12-17T18:00:15.001Z,4
2018-12-17T18:01:20.626Z,4
2018-12-17T18:06:03.793Z,4
2018-12-17T18:07:04.368Z,4
2018-12-17T18:08:04.941Z,4
2018-12-17T18:09:50.029Z,4
2018-12-17T18:10:50.604Z,4
2018-12-17T18:14:38.809Z,4
2018-12-17T18:15:41.738Z,4
2018-12-17T18:16:41.000Z,4
2018-12-17T18:17:41.573Z,4
2018-12-17T18:19:26.665Z,4
2018-12-17T18:20:27.279Z,4
2018-12-17T18:21:27.854Z,4
2018-12-17T18:22:28.576Z,4
2018-12-17T18:24:13.666Z,4
2018-12-17T18:25:14.238Z,4
2018-12-17T18:26:14.861Z,4
2018-12-17T18:27:15.452Z,4
2018-12-17T18:29:00.540Z,4
2018-12-17T18:30:01.115Z,4
2018-12-17T18:31:01.788Z,4
2018-12-17T18:32:02.462Z,4
2018-12-17T18:33:47.554Z,4
2018-12-17T18:34:48.271Z,4
2018-12-17T18:35:48.846Z,4
2018-12-17T18:36:49.419Z,4
2018-12-17T18:38:34.556Z,4
2018-12-17T18:39:35.131Z,4
2018-12-17T18:40:35.702Z,4
2018-12-17T18:41:36.275Z,4
2018-12-17T18:43:21.411Z,4
2018-12-17T18:44:21.984Z,4
2018-12-17T18:45:22.557Z,4
2018-12-17T18:46:23.129Z,0
2018-12-17T18:48:08.366Z,4
2018-12-17T18:49:08.936Z,0
2018-12-17T18:50:09.509Z,0
2018-12-17T18:51:10.082Z,4
2018-12-17T18:52:55.170Z,4
2018-12-17T18:53:55.743Z,4
2018-12-17T18:54:56.366Z,4
2018-12-17T18:55:56.990Z,8
2018-12-17T18:57:42.075Z,8
2018-12-17T18:58:42.649Z,8
2018-12-17T18:59:43.222Z,8
2018-12-17T19:00:43.795Z,8
2018-12-17T19:02:33.005Z,8
2018-12-17T19:03:30.448Z,8
2018-12-17T19:04:31.070Z,8
2018-12-17T19:05:31.643Z,8
2018-12-17T19:07:16.730Z,8
2018-12-17T19:08:17.302Z,8
2018-12-17T19:09:17.876Z,8
2018-12-17T19:10:18.449Z,8
2018-12-17T19:12:03.686Z,8
2018-12-17T19:13:04.310Z,12
2018-12-17T19:14:04.886Z,8
2018-12-17T19:15:05.456Z,8
2018-12-17T19:16:50.543Z,4
2018-12-17T19:17:51.116Z,4
2018-12-17T19:18:51.690Z,8
2018-12-17T19:19:52.263Z,8
2018-12-17T19:21:37.362Z,8
2018-12-17T19:22:37.937Z,4
2018-12-17T19:23:38.512Z,8
2018-12-17T19:24:39.084Z,8
2018-12-17T19:26:24.170Z,8
2018-12-17T19:27:24.748Z,8
2018-12-17T19:28:25.370Z,8
2018-12-17T19:29:25.943Z,8
2018-12-17T19:31:11.079Z,8
2018-12-17T19:32:11.704Z,8
2018-12-17T19:33:12.275Z,8
2018-12-17T19:34:12.897Z,8
2018-12-17T19:35:57.984Z,8
2018-12-17T19:36:58.608Z,8
2018-12-17T19:37:59.180Z,8